Cochran, Texas
Current Conditions -  °F | °C
As of 6:15 PM on Wednesday 26 Nov 2014 (Local Time) from K11R Reporting Station
Clear Clear  
Wind Chill: 64°   Ceiling: Unl
Heat Index: 64°   Visibility: 10mi
Dew Point: 38°   Wind: 0mph
Humidity: 38%   Direction: NA
Pressure: 30.22"   Gusts: NA
Location:  29.9944°N, 96.2595°W
Report Text: K11R 270015Z AUTO 00000KT 10SM CLR 18/03 A3022 RMK AO2 T01800033
Loading
Personal Weather Stations






























Interactive Weather Map New forecast layout! Learn more

10-Day Weather Forecast

Advertisements
Track Severe Weather on mobile